createdAt,value
2022-11-15T00:00:11.818Z,13.98
2022-11-15T00:03:19.841Z,11.70
2022-11-15T00:06:26.100Z,14.80
2022-11-15T00:09:32.124Z,9.63
2022-11-15T00:12:38.375Z,11.73
2022-11-15T00:15:44.487Z,10.43
2022-11-15T00:18:51.134Z,10.27
2022-11-15T00:21:57.322Z,9.60
2022-11-15T00:25:04.617Z,9.02
2022-11-15T00:28:10.610Z,7.72
2022-11-15T00:31:16.957Z,6.32
2022-11-15T00:34:23.028Z,8.32
2022-11-15T00:37:28.872Z,10.57
2022-11-15T00:40:35.147Z,8.73
2022-11-15T00:43:43.360Z,10.90
2022-11-15T00:46:49.332Z,15.05
2022-11-15T00:49:55.695Z,11.55
2022-11-15T00:53:02.042Z,11.65
2022-11-15T00:56:08.585Z,13.15
2022-11-15T00:59:17.048Z,8.48
2022-11-15T01:02:23.319Z,10.80
2022-11-15T01:05:31.716Z,7.25
2022-11-15T01:08:42.974Z,9.02
2022-11-15T01:11:48.967Z,10.45
2022-11-15T01:14:55.398Z,10.15
2022-11-15T01:18:01.834Z,11.50
2022-11-15T01:21:17.912Z,9.80
2022-11-15T01:24:23.877Z,9.02
2022-11-15T01:27:29.787Z,11.90
2022-11-15T01:30:37.359Z,9.85
2022-11-15T01:33:44.004Z,13.38
2022-11-15T01:36:50.459Z,9.93
2022-11-15T01:39:56.665Z,23.80
2022-11-15T01:43:23.433Z,18.45
2022-11-15T01:46:38.544Z,25.38
2022-11-15T01:50:00.681Z,24.00
2022-11-15T01:53:11.890Z,27.92
2022-11-15T01:56:25.761Z,22.33
2022-11-15T01:59:31.984Z,14.23
2022-11-15T02:02:39.205Z,18.58
2022-11-15T02:05:45.807Z,21.15
2022-11-15T02:08:52.872Z,16.08
2022-11-15T02:12:00.341Z,9.15
2022-11-15T02:15:08.745Z,10.68
2022-11-15T02:18:29.298Z,12.40
2022-11-15T02:21:44.936Z,9.65
2022-11-15T02:25:27.504Z,7.93
2022-11-15T02:28:39.442Z,6.32
2022-11-15T02:31:51.328Z,6.32
2022-11-15T02:35:09.250Z,6.57
2022-11-15T02:38:29.281Z,11.93
2022-11-15T02:41:48.511Z,11.02
2022-11-15T02:44:58.538Z,9.82
2022-11-15T02:48:07.392Z,17.98
2022-11-15T02:51:14.896Z,12.25
2022-11-15T02:54:24.512Z,11.45
2022-11-15T02:57:53.906Z,11.50
2022-11-15T03:01:23.373Z,10.63
2022-11-15T03:04:50.210Z,8.18
2022-11-15T03:08:02.771Z,20.45
2022-11-15T03:11:10.891Z,21.55
2022-11-15T03:14:22.506Z,14.80
2022-11-15T03:17:42.448Z,15.90
2022-11-15T03:20:50.395Z,16.25
2022-11-15T03:23:58.398Z,15.38
2022-11-15T03:27:08.086Z,14.82
2022-11-15T03:30:15.027Z,14.38
2022-11-15T03:33:23.183Z,16.10
2022-11-15T03:36:32.648Z,15.00
2022-11-15T03:39:38.644Z,12.98
2022-11-15T03:42:50.086Z,11.95
2022-11-15T03:46:12.845Z,18.50
2022-11-15T03:49:29.274Z,40.95
2022-11-15T03:52:36.131Z,12.82
2022-11-15T03:55:42.465Z,19.92
2022-11-15T03:58:48.760Z,13.85
2022-11-15T04:02:13.371Z,14.40
2022-11-15T04:05:19.789Z,13.68
2022-11-15T04:08:25.897Z,10.57
2022-11-15T04:11:32.297Z,11.68
2022-11-15T04:14:38.396Z,14.48
2022-11-15T04:17:48.080Z,11.90
2022-11-15T04:21:12.721Z,14.50
2022-11-15T04:24:18.858Z,13.75
2022-11-15T04:27:25.334Z,12.68
2022-11-15T04:30:31.596Z,15.23
2022-11-15T04:33:37.844Z,11.52
2022-11-15T04:37:02.394Z,12.10
2022-11-15T04:40:09.276Z,9.55
2022-11-15T04:43:15.459Z,7.88
2022-11-15T04:46:24.856Z,10.02
2022-11-15T04:49:31.230Z,7.93
2022-11-15T04:52:37.516Z,8.07
2022-11-15T04:55:47.254Z,6.35
2022-11-15T04:58:53.756Z,9.90
2022-11-15T05:02:00.250Z,7.78
2022-11-15T05:05:06.833Z,7.90
2022-11-15T05:08:14.878Z,13.00
2022-11-15T05:11:24.308Z,7.65
2022-11-15T05:14:30.575Z,6.95
2022-11-15T05:17:36.876Z,7.93
2022-11-15T05:20:43.272Z,11.00
2022-11-15T05:23:49.713Z,9.15
2022-11-15T05:26:56.072Z,10.23
2022-11-15T05:30:02.009Z,11.70
2022-11-15T05:33:08.332Z,9.85
2022-11-15T05:36:26.850Z,10.75
2022-11-15T05:39:35.571Z,10.23
2022-11-15T05:42:41.791Z,8.15
2022-11-15T05:45:48.530Z,10.18
2022-11-15T05:48:56.959Z,10.75
2022-11-15T05:52:08.227Z,11.23
2022-11-15T05:55:15.091Z,10.60
2022-11-15T05:58:21.895Z,6.65
2022-11-15T06:01:29.425Z,8.23
2022-11-15T06:04:35.337Z,8.15
2022-11-15T06:07:41.296Z,9.35
2022-11-15T06:10:47.678Z,6.55
2022-11-15T06:13:55.909Z,6.47
2022-11-15T06:17:05.974Z,14.48
2022-11-15T06:20:14.519Z,10.13
2022-11-15T06:23:20.869Z,14.05
2022-11-15T06:26:26.960Z,11.30
2022-11-15T06:29:33.190Z,9.23
2022-11-15T06:32:39.494Z,10.10
2022-11-15T06:35:45.646Z,16.65
2022-11-15T06:38:52.184Z,11.68
2022-11-15T06:41:58.637Z,11.93
2022-11-15T06:45:05.167Z,12.40
2022-11-15T06:48:11.566Z,13.43
2022-11-15T06:51:17.460Z,15.93
2022-11-15T06:54:23.729Z,18.15
2022-11-15T06:57:29.981Z,21.00
2022-11-15T07:00:40.744Z,15.30
2022-11-15T07:03:58.230Z,12.20
2022-11-15T07:07:11.686Z,13.98
2022-11-15T07:10:26.494Z,15.48
2022-11-15T07:13:36.741Z,19.15
2022-11-15T07:16:42.769Z,21.33
2022-11-15T07:19:49.138Z,25.33
2022-11-15T07:23:06.336Z,26.10
2022-11-15T07:26:12.652Z,22.25
2022-11-15T07:29:18.768Z,23.35
2022-11-15T07:32:25.000Z,21.20
2022-11-15T07:35:31.371Z,29.40
2022-11-15T07:38:42.417Z,18.20
2022-11-15T07:42:11.813Z,20.13
2022-11-15T07:45:17.924Z,18.15
2022-11-15T07:48:24.283Z,15.98
2022-11-15T07:51:30.707Z,17.40
2022-11-15T07:54:37.005Z,15.93
2022-11-15T07:57:43.506Z,18.17
2022-11-15T08:00:49.560Z,16.42
2022-11-15T08:03:58.052Z,15.27
2022-11-15T08:07:04.384Z,12.10
2022-11-15T08:10:10.666Z,17.50
2022-11-15T08:13:16.626Z,15.38
2022-11-15T08:16:22.730Z,13.40
2022-11-15T08:19:28.839Z,9.60
2022-11-15T08:22:35.195Z,17.85
2022-11-15T08:25:41.336Z,14.02
2022-11-15T08:28:47.249Z,17.33
2022-11-15T08:31:56.339Z,16.92
2022-11-15T08:35:02.231Z,17.05
2022-11-15T08:38:08.650Z,17.55
2022-11-15T08:41:37.048Z,11.68
2022-11-15T08:44:43.332Z,15.75
2022-11-15T08:47:53.969Z,12.45
2022-11-15T08:51:00.666Z,14.30
2022-11-15T08:54:06.769Z,17.15
2022-11-15T08:57:13.682Z,15.15
2022-11-15T09:00:21.134Z,9.90
2022-11-15T09:03:27.248Z,15.13
2022-11-15T09:06:33.296Z,12.90
2022-11-15T09:09:39.599Z,15.32
2022-11-15T09:12:46.453Z,18.50
2022-11-15T09:15:52.616Z,9.80
2022-11-15T09:18:58.928Z,8.75
2022-11-15T09:22:09.062Z,6.05
2022-11-15T09:25:15.372Z,8.15
2022-11-15T09:31:45.549Z,6.65
2022-11-15T09:34:51.762Z,5.43
2022-11-15T09:37:59.504Z,6.05
2022-11-15T09:41:14.214Z,10.88
2022-11-15T09:44:42.235Z,5.28
2022-11-15T09:48:04.637Z,8.10
2022-11-15T09:51:36.930Z,12.13
2022-11-15T09:57:48.724Z,10.77
2022-11-15T10:00:50.220Z,10.10
2022-11-15T10:03:43.237Z,13.98
2022-11-15T10:06:36.211Z,8.38
2022-11-15T10:09:31.591Z,8.75
2022-11-15T10:12:19.604Z,11.80
2022-11-15T10:15:16.143Z,18.02
2022-11-15T10:18:30.325Z,9.80
2022-11-15T10:21:47.192Z,8.20
2022-11-15T10:24:39.088Z,6.55
2022-11-15T10:27:26.779Z,7.15
2022-11-15T10:30:19.609Z,17.95
2022-11-15T10:33:37.672Z,32.55
2022-11-15T10:36:27.909Z,9.77
2022-11-15T10:42:28.186Z,11.50
2022-11-15T10:42:29.913Z,12.13
2022-11-15T10:45:44.331Z,9.80
2022-11-15T10:48:32.333Z,24.08
2022-11-15T10:51:29.460Z,13.70
2022-11-15T10:54:42.711Z,10.20
2022-11-15T10:57:34.337Z,12.10
2022-11-15T11:00:22.117Z,8.98
2022-11-15T11:03:36.815Z,8.52
2022-11-15T11:06:24.542Z,5.03
2022-11-15T11:09:23.022Z,6.22
2022-11-15T11:12:13.869Z,9.82
2022-11-15T11:15:10.735Z,10.02
2022-11-15T11:18:23.830Z,5.88
2022-11-15T11:21:16.483Z,4.78
2022-11-15T11:24:09.886Z,4.43
2022-11-15T11:27:32.770Z,6.80
2022-11-15T11:30:26.233Z,8.40
2022-11-15T11:33:26.154Z,6.82
2022-11-15T11:36:37.336Z,5.90
2022-11-15T11:39:34.459Z,8.40
2022-11-15T11:42:37.077Z,5.88
2022-11-15T11:45:51.783Z,6.32
2022-11-15T11:49:02.416Z,11.23
2022-11-15T11:52:23.211Z,10.05
2022-11-15T11:55:20.489Z,11.32
2022-11-15T11:58:35.465Z,9.98
2022-11-15T12:01:32.023Z,9.75
2022-11-15T12:04:30.953Z,9.93
2022-11-15T12:07:31.670Z,9.48
2022-11-15T12:10:31.136Z,9.35
2022-11-15T12:13:25.755Z,7.35
2022-11-15T12:16:23.828Z,11.45
2022-11-15T12:19:11.507Z,11.95
2022-11-15T12:22:10.184Z,17.90
2022-11-15T12:25:00.847Z,5.57
2022-11-15T12:27:51.848Z,8.85
2022-11-15T12:30:49.410Z,9.65
2022-11-15T12:33:43.899Z,6.72
2022-11-15T12:36:37.415Z,12.90
2022-11-15T12:40:07.830Z,8.82
2022-11-15T12:43:26.469Z,10.48
2022-11-15T12:46:21.752Z,13.15
2022-11-15T12:49:25.512Z,14.68
2022-11-15T12:52:13.270Z,8.18
2022-11-15T12:55:03.208Z,9.25
2022-11-15T12:57:51.029Z,8.45
2022-11-15T13:00:39.393Z,10.85
2022-11-15T13:03:29.037Z,9.90
2022-11-15T13:06:40.052Z,10.18
2022-11-15T13:09:33.703Z,13.82
2022-11-15T13:12:27.561Z,10.75
2022-11-15T13:15:15.866Z,11.05
2022-11-15T13:18:40.555Z,11.13
2022-11-15T13:21:46.565Z,7.80
2022-11-15T13:24:34.309Z,7.97
2022-11-15T13:27:22.259Z,10.35
2022-11-15T13:30:22.026Z,10.50
2022-11-15T13:33:15.886Z,8.73
2022-11-15T13:36:30.115Z,14.23
2022-11-15T13:39:35.052Z,7.60
2022-11-15T13:42:29.949Z,11.05
2022-11-15T13:45:20.017Z,22.55
2022-11-15T13:48:09.585Z,11.55
2022-11-15T13:50:59.063Z,11.95
2022-11-15T13:53:52.261Z,13.73
2022-11-15T13:56:44.296Z,28.25
2022-11-15T13:59:35.950Z,18.15
2022-11-15T14:02:31.309Z,17.90
2022-11-15T14:05:22.450Z,16.63
2022-11-15T14:08:22.904Z,19.90
2022-11-15T14:11:19.564Z,14.80
2022-11-15T14:14:10.744Z,23.38
2022-11-15T14:17:02.182Z,15.63
2022-11-15T14:19:49.914Z,23.25
2022-11-15T14:22:39.000Z,18.58
2022-11-15T14:25:29.025Z,15.73
2022-11-15T14:28:31.967Z,22.38
2022-11-15T14:31:22.155Z,21.15
2022-11-15T14:34:10.247Z,17.20
2022-11-15T14:36:58.001Z,14.95
2022-11-15T14:39:45.641Z,16.75
2022-11-15T14:42:33.670Z,16.20
2022-11-15T14:45:23.088Z,15.88
2022-11-15T14:48:13.127Z,15.25
2022-11-15T14:51:00.731Z,12.27
2022-11-15T14:53:51.854Z,13.43
2022-11-15T14:56:43.879Z,15.55
2022-11-15T14:59:31.596Z,16.33
2022-11-15T15:02:25.389Z,17.20
2022-11-15T15:05:22.072Z,26.88
2022-11-15T15:08:13.147Z,42.50
2022-11-15T15:11:00.942Z,22.20
2022-11-15T15:13:48.895Z,20.70
2022-11-15T15:16:39.429Z,20.40
2022-11-15T15:19:27.150Z,20.90
2022-11-15T15:22:18.133Z,32.58
2022-11-15T15:25:30.032Z,27.05
2022-11-15T15:28:17.693Z,33.70
2022-11-15T15:31:05.508Z,28.15
2022-11-15T15:33:53.172Z,26.63
2022-11-15T15:36:41.007Z,29.10
2022-11-15T15:39:28.712Z,30.85
2022-11-15T15:42:16.376Z,23.17
2022-11-15T15:45:04.296Z,20.58
2022-11-15T15:47:57.304Z,30.15
2022-11-15T15:50:46.325Z,27.90
2022-11-15T15:53:34.283Z,24.33
2022-11-15T15:56:21.984Z,29.75
2022-11-15T15:59:09.680Z,28.95
2022-11-15T16:01:57.410Z,33.78
2022-11-15T16:04:45.141Z,25.77
2022-11-15T16:07:33.236Z,18.73
2022-11-15T16:10:20.908Z,25.75
2022-11-15T16:13:08.743Z,27.38
2022-11-15T16:15:56.542Z,39.22
2022-11-15T16:18:44.288Z,42.15
2022-11-15T16:21:32.123Z,25.02
2022-11-15T16:24:24.359Z,16.67
2022-11-15T16:30:16.335Z,25.52
2022-11-15T16:33:04.313Z,28.67
2022-11-15T16:35:54.758Z,30.05
2022-11-15T16:38:42.399Z,38.00
2022-11-15T16:41:34.653Z,27.65
2022-11-15T16:44:45.189Z,21.52
2022-11-15T16:47:32.881Z,16.40
2022-11-15T16:50:29.935Z,20.40
2022-11-15T16:53:17.914Z,20.98
2022-11-15T16:56:31.757Z,23.05
2022-11-15T16:59:21.165Z,17.73
2022-11-15T17:02:20.901Z,21.73
2022-11-15T17:05:11.745Z,19.58
2022-11-15T17:08:02.330Z,17.35
2022-11-15T17:10:53.570Z,15.55
2022-11-15T17:13:41.319Z,17.50
2022-11-15T17:16:29.162Z,25.58
2022-11-15T17:19:19.191Z,22.38
2022-11-15T17:22:06.976Z,32.72
2022-11-15T17:24:54.642Z,31.50
2022-11-15T17:27:42.583Z,20.83
2022-11-15T17:30:30.214Z,20.30
2022-11-15T17:33:17.936Z,21.70
2022-11-15T17:36:07.716Z,22.30
2022-11-15T17:38:59.304Z,17.80
2022-11-15T17:41:50.703Z,15.35
2022-11-15T17:44:40.908Z,15.73
2022-11-15T17:47:28.577Z,21.02
2022-11-15T17:50:18.009Z,19.13
2022-11-15T17:53:05.862Z,23.77
2022-11-15T17:55:54.124Z,29.58
2022-11-15T17:58:42.226Z,20.08
2022-11-15T18:01:32.367Z,17.60
2022-11-15T18:04:20.310Z,15.45
2022-11-15T18:07:08.111Z,17.45
2022-11-15T18:09:58.041Z,15.10
2022-11-15T18:12:45.814Z,13.35
2022-11-15T18:15:33.521Z,12.40
2022-11-15T18:18:21.281Z,19.83
2022-11-15T18:21:13.554Z,15.07
2022-11-15T18:26:53.061Z,32.67
2022-11-15T18:29:46.911Z,43.65
2022-11-15T18:32:34.653Z,25.00
2022-11-15T18:35:22.295Z,40.17
2022-11-15T18:38:09.971Z,22.58
2022-11-15T18:40:59.805Z,26.58
2022-11-15T18:43:51.594Z,28.15
2022-11-15T18:46:40.312Z,20.73
2022-11-15T18:49:28.444Z,20.60
2022-11-15T18:52:20.125Z,18.10
2022-11-15T18:55:09.684Z,15.68
2022-11-15T18:58:00.038Z,18.13
2022-11-15T19:00:50.866Z,14.90
2022-11-15T19:03:41.635Z,16.05
2022-11-15T19:06:32.945Z,14.23
2022-11-15T19:09:21.027Z,17.60
2022-11-15T19:12:12.189Z,19.98
2022-11-15T19:14:59.931Z,18.43
2022-11-15T19:17:50.820Z,14.38
2022-11-15T19:20:38.684Z,16.30
2022-11-15T19:23:26.424Z,13.15
2022-11-15T19:26:16.103Z,16.38
2022-11-15T19:29:07.931Z,15.82
2022-11-15T19:31:55.648Z,14.88
2022-11-15T19:34:43.381Z,15.60
2022-11-15T19:37:31.223Z,16.17
2022-11-15T19:40:18.880Z,20.75
2022-11-15T19:43:07.104Z,23.30
2022-11-15T19:46:01.926Z,27.52
2022-11-15T19:48:51.357Z,43.55
2022-11-15T19:51:41.830Z,43.75
2022-11-15T19:54:29.559Z,22.35
2022-11-15T19:57:17.441Z,18.23
2022-11-15T20:00:07.528Z,14.98
2022-11-15T20:02:55.432Z,16.33
2022-11-15T20:05:43.808Z,11.25
2022-11-15T20:08:33.058Z,10.55
2022-11-15T20:11:21.714Z,14.38
2022-11-15T20:14:11.805Z,12.00
2022-11-15T20:16:59.683Z,13.20
2022-11-15T20:19:47.378Z,13.70
2022-11-15T20:22:35.059Z,15.35
2022-11-15T20:25:22.733Z,12.23
2022-11-15T20:28:13.646Z,14.55
2022-11-15T20:31:01.916Z,16.15
2022-11-15T20:33:49.527Z,15.38
2022-11-15T20:36:37.264Z,20.48
2022-11-15T20:39:25.415Z,21.95
2022-11-15T20:42:13.206Z,29.40
2022-11-15T20:45:02.048Z,28.02
2022-11-15T20:47:49.820Z,23.08
2022-11-15T20:50:44.608Z,25.17
2022-11-15T20:53:32.688Z,21.33
2022-11-15T20:56:22.337Z,63.60
2022-11-15T20:59:09.991Z,47.78
2022-11-15T21:01:57.849Z,29.83
2022-11-15T21:04:45.712Z,32.33
2022-11-15T21:07:33.547Z,17.13
2022-11-15T21:10:39.761Z,19.63
2022-11-15T21:13:27.574Z,16.30
2022-11-15T21:16:17.079Z,16.35
2022-11-15T21:19:05.900Z,16.27
2022-11-15T21:21:53.761Z,19.25
2022-11-15T21:24:41.703Z,16.42
2022-11-15T21:27:29.282Z,30.02
2022-11-15T21:30:17.314Z,30.73
2022-11-15T21:33:04.950Z,21.73
2022-11-15T21:35:52.774Z,19.75
2022-11-15T21:38:40.475Z,20.63
2022-11-15T21:41:28.293Z,20.52
2022-11-15T21:44:16.133Z,17.40
2022-11-15T21:47:03.836Z,28.08
2022-11-15T21:49:51.659Z,25.80
2022-11-15T21:52:39.293Z,17.90
2022-11-15T21:55:27.102Z,22.70
2022-11-15T21:58:14.814Z,22.83
2022-11-15T22:01:21.492Z,29.98
2022-11-15T22:04:09.930Z,22.65
2022-11-15T22:06:57.767Z,19.33
2022-11-15T22:09:45.437Z,16.63
2022-11-15T22:12:33.138Z,17.05
2022-11-15T22:15:21.088Z,23.58
2022-11-15T22:18:15.294Z,23.75
2022-11-15T22:21:05.664Z,16.23
2022-11-15T22:23:53.506Z,17.25
2022-11-15T22:26:41.317Z,15.02
2022-11-15T22:29:29.078Z,16.35
2022-11-15T22:32:16.736Z,13.93
2022-11-15T22:35:04.685Z,16.20
2022-11-15T22:37:53.008Z,13.88
2022-11-15T22:40:49.167Z,16.13
2022-11-15T22:43:37.289Z,18.25
2022-11-15T22:46:25.070Z,12.93
2022-11-15T22:49:12.768Z,14.07
2022-11-15T22:52:00.565Z,19.33
2022-11-15T22:54:48.226Z,34.67
2022-11-15T22:57:38.494Z,27.25
2022-11-15T23:00:26.315Z,32.47
2022-11-15T23:03:14.146Z,36.55
2022-11-15T23:06:06.887Z,35.65
2022-11-15T23:08:54.691Z,24.58
2022-11-15T23:12:00.793Z,23.95
2022-11-15T23:14:48.467Z,21.83
2022-11-15T23:17:36.200Z,32.13
2022-11-15T23:20:42.489Z,32.03
2022-11-15T23:23:30.891Z,22.48
2022-11-15T23:26:18.667Z,20.65
2022-11-15T23:29:08.606Z,21.20
2022-11-15T23:32:32.803Z,23.02
2022-11-15T23:35:20.669Z,27.38
2022-11-15T23:38:08.364Z,19.75
2022-11-15T23:40:56.083Z,15.38
2022-11-15T23:43:43.942Z,28.02
2022-11-15T23:46:31.784Z,24.88
2022-11-15T23:49:19.738Z,22.27
2022-11-15T23:52:07.406Z,24.65
2022-11-15T23:54:55.080Z,25.27
2022-11-15T23:57:42.770Z,23.20
